Time;durP1;ratioP1;P1;durP2;ratioP2;P2;SDS_P1;SDS_P2;PMS_P1;PMS_P2;Temp;Humidity;BMP_temperature;BMP_pressure;BME280_temperature;BME280_humidity;BME280_pressure;Samples;Min_cycle;Max_cycle;Signal;HPM_P1;HPM_P2
2024/01/23 00:01:19;;;;;;;22.13;4.28;;;;;;;;;;5052963;28;20402;-62
2024/01/23 00:03:44;;;;;;;18.80;3.85;;;;;;;;;;5035529;28;20447;-62
2024/01/23 00:06:09;;;;;;;16.60;3.50;;;;;;;;;;5052170;28;20398;-62
2024/01/23 00:08:34;;;;;;;18.83;3.47;;;;;;;;;;5053496;28;20398;-62
2024/01/23 00:11:00;;;;;;;19.97;3.93;;;;;;;;;;5047600;28;20406;-62
2024/01/23 00:13:25;;;;;;;19.33;3.40;;;;;;;;;;5036725;28;20443;-62
2024/01/23 00:15:50;;;;;;;18.37;3.90;;;;;;;;;;5053500;28;21237;-62
2024/01/23 00:18:15;;;;;;;15.83;3.20;;;;;;;;;;5052480;28;20397;-62
2024/01/23 00:20:41;;;;;;;17.60;3.83;;;;;;;;;;5052673;28;20490;-62
2024/01/23 00:23:06;;;;;;;15.87;3.40;;;;;;;;;;5052520;28;20398;-62
2024/01/23 00:25:31;;;;;;;15.93;3.30;;;;;;;;;;5053382;28;20424;-62
2024/01/23 00:27:57;;;;;;;15.67;3.07;;;;;;;;;;5052205;28;20481;-62
2024/01/23 00:30:22;;;;;;;16.67;3.10;;;;;;;;;;5052524;28;20453;-61
2024/01/23 00:32:47;;;;;;;18.10;3.50;;;;;;;;;;5052058;28;20411;-62
2024/01/23 00:35:13;;;;;;;18.17;3.50;;;;;;;;;;5052492;28;20800;-62
2024/01/23 00:37:38;;;;;;;19.83;3.87;;;;;;;;;;5052788;28;20425;-62
2024/01/23 00:40:04;;;;;;;18.63;3.60;;;;;;;;;;5051776;28;20386;-62
2024/01/23 00:42:29;;;;;;;18.80;3.50;;;;;;;;;;5052746;28;20381;-62
2024/01/23 00:44:55;;;;;;;16.33;3.80;;;;;;;;;;5034983;28;20405;-62
2024/01/23 00:47:20;;;;;;;18.67;3.77;;;;;;;;;;5051451;28;20385;-62
2024/01/23 00:49:45;;;;;;;17.67;3.50;;;;;;;;;;5052408;28;20462;-62
2024/01/23 00:52:11;;;;;;;17.87;3.53;;;;;;;;;;5052153;28;20402;-62
2024/01/23 00:54:36;;;;;;;17.17;3.40;;;;;;;;;;5052307;28;20389;-62
2024/01/23 00:57:05;;;;;;;20.20;3.60;;;;;;;;;;5051784;28;20405;-64
2024/01/23 00:59:30;;;;;;;16.95;3.33;;;;;;;;;;5040393;28;20414;-62
2024/01/23 01:01:55;;;;;;;16.80;3.33;;;;;;;;;;5022646;28;21089;-62
2024/01/23 01:04:20;;;;;;;17.97;3.63;;;;;;;;;;5022297;28;20454;-62
2024/01/23 01:06:46;;;;;;;20.27;3.37;;;;;;;;;;5016123;28;20399;-62
2024/01/23 01:09:11;;;;;;;20.50;4.00;;;;;;;;;;5013045;28;20419;-62
2024/01/23 01:11:36;;;;;;;16.53;3.27;;;;;;;;;;5014912;28;20407;-62
2024/01/23 01:14:02;;;;;;;19.80;3.60;;;;;;;;;;5020913;28;20391;-62
2024/01/23 01:16:28;;;;;;;17.95;3.75;;;;;;;;;;5033164;28;20538;-62
2024/01/23 01:18:53;;;;;;;20.90;3.83;;;;;;;;;;5022126;28;20403;-62
2024/01/23 01:21:19;;;;;;;17.23;3.40;;;;;;;;;;5021692;28;20762;-62
2024/01/23 01:23:44;;;;;;;19.67;3.90;;;;;;;;;;5021274;28;20928;-62
2024/01/23 01:26:10;;;;;;;18.05;3.30;;;;;;;;;;5040949;28;20451;-62
2024/01/23 01:28:36;;;;;;;18.03;3.90;;;;;;;;;;5037073;28;21093;-62
2024/01/23 01:31:01;;;;;;;18.92;4.10;;;;;;;;;;5032588;28;20500;-63
2024/01/23 01:33:26;;;;;;;16.83;3.90;;;;;;;;;;5026282;28;20403;-62
2024/01/23 01:35:52;;;;;;;17.27;4.00;;;;;;;;;;5037477;28;20500;-62
2024/01/23 01:38:18;;;;;;;20.70;4.00;;;;;;;;;;5039949;28;20492;-63
2024/01/23 01:40:43;;;;;;;18.87;3.80;;;;;;;;;;5041864;28;20484;-62
2024/01/23 01:43:25;;;;;;;22.10;3.83;;;;;;;;;;5040518;28;20950;-62
2024/01/23 01:45:55;;;;;;;18.55;3.97;;;;;;;;;;5025033;28;20406;-62
2024/01/23 01:48:20;;;;;;;19.83;3.95;;;;;;;;;;5040194;28;20397;-62
2024/01/23 01:50:46;;;;;;;17.47;3.67;;;;;;;;;;5024248;28;20406;-62
2024/01/23 01:53:12;;;;;;;17.70;3.60;;;;;;;;;;5013574;28;20469;-62
2024/01/23 01:55:37;;;;;;;21.25;4.28;;;;;;;;;;5028788;28;20395;-62
2024/01/23 01:58:02;;;;;;;17.37;3.80;;;;;;;;;;5015546;28;20418;-63
2024/01/23 02:00:28;;;;;;;19.73;3.60;;;;;;;;;;5024847;28;21152;-62
2024/01/23 02:02:53;;;;;;;19.20;4.10;;;;;;;;;;5049847;28;20393;-62
2024/01/23 02:05:18;;;;;;;19.67;4.27;;;;;;;;;;5049996;28;20404;-62
2024/01/23 02:07:43;;;;;;;17.80;3.97;;;;;;;;;;5051201;28;20389;-62
2024/01/23 02:10:09;;;;;;;15.87;4.03;;;;;;;;;;5050654;28;20409;-62
2024/01/23 02:12:34;;;;;;;16.87;3.80;;;;;;;;;;5050473;28;20757;-62
2024/01/23 02:14:59;;;;;;;16.60;3.88;;;;;;;;;;5050999;28;20401;-62
2024/01/23 02:17:25;;;;;;;14.97;3.50;;;;;;;;;;5050438;28;20428;-62
2024/01/23 02:19:50;;;;;;;16.00;3.60;;;;;;;;;;5050132;28;20885;-62
2024/01/23 02:22:16;;;;;;;14.90;3.33;;;;;;;;;;5049808;28;20441;-62
2024/01/23 02:24:41;;;;;;;18.27;3.43;;;;;;;;;;5050763;28;20413;-62
2024/01/23 02:27:06;;;;;;;15.23;3.50;;;;;;;;;;5049757;28;20401;-62
2024/01/23 02:29:32;;;;;;;16.33;3.13;;;;;;;;;;5050739;28;20400;-62
2024/01/23 02:31:57;;;;;;;15.43;3.63;;;;;;;;;;5050650;28;20440;-62
2024/01/23 02:34:24;;;;;;;16.52;3.60;;;;;;;;;;5049669;28;20500;-62
2024/01/23 02:36:49;;;;;;;18.35;3.65;;;;;;;;;;5050595;28;20901;-62
2024/01/23 02:39:15;;;;;;;16.40;3.30;;;;;;;;;;5049558;28;20397;-63
2024/01/23 02:41:40;;;;;;;17.97;3.53;;;;;;;;;;5050973;28;20402;-62
2024/01/23 02:44:05;;;;;;;18.77;3.57;;;;;;;;;;5050161;28;20753;-62
2024/01/23 02:46:30;;;;;;;16.60;3.73;;;;;;;;;;5049988;28;20467;-62
2024/01/23 02:48:56;;;;;;;22.15;4.00;;;;;;;;;;5023044;28;20473;-62
2024/01/23 02:51:21;;;;;;;18.63;4.10;;;;;;;;;;5020987;28;20895;-62
2024/01/23 02:53:46;;;;;;;17.53;3.50;;;;;;;;;;5019914;28;20497;-61
2024/01/23 02:56:12;;;;;;;19.60;3.80;;;;;;;;;;5032736;28;20416;-62
2024/01/23 02:58:40;;;;;;;19.83;3.70;;;;;;;;;;5020948;28;20483;-62
2024/01/23 03:01:05;;;;;;;19.23;4.07;;;;;;;;;;5028752;28;20456;-62
2024/01/23 03:03:30;;;;;;;18.27;3.93;;;;;;;;;;5013024;28;21130;-62
2024/01/23 03:05:56;;;;;;;16.07;4.43;;;;;;;;;;5027972;28;20399;-62
2024/01/23 03:08:22;;;;;;;17.63;3.87;;;;;;;;;;5016859;28;20479;-62
2024/01/23 03:10:48;;;;;;;21.58;3.80;;;;;;;;;;5020596;28;20399;-62
2024/01/23 03:13:13;;;;;;;21.00;4.70;;;;;;;;;;5020449;28;20453;-62
2024/01/23 03:15:38;;;;;;;17.93;3.77;;;;;;;;;;5020028;28;21489;-62
2024/01/23 03:18:04;;;;;;;21.38;4.18;;;;;;;;;;5020210;28;20577;-63
2024/01/23 03:20:30;;;;;;;19.73;4.33;;;;;;;;;;5020823;28;20802;-62
2024/01/23 03:22:56;;;;;;;18.65;3.90;;;;;;;;;;5019651;28;20685;-63
2024/01/23 03:25:21;;;;;;;21.88;4.68;;;;;;;;;;5012341;28;20402;-62
2024/01/23 03:27:46;;;;;;;20.07;3.77;;;;;;;;;;5012421;28;20949;-62
2024/01/23 03:30:26;;;;;;;18.80;3.80;;;;;;;;;;5014207;28;20473;-62
2024/01/23 03:32:51;;;;;;;17.33;4.18;;;;;;;;;;5041387;28;20959;-62
2024/01/23 03:35:16;;;;;;;20.83;3.83;;;;;;;;;;5043401;28;20405;-62
2024/01/23 03:37:42;;;;;;;19.37;4.03;;;;;;;;;;5042970;28;20476;-62
2024/01/23 03:40:08;;;;;;;24.73;4.70;;;;;;;;;;5043059;28;20393;-63
2024/01/23 03:42:34;;;;;;;22.10;4.20;;;;;;;;;;5042734;28;20745;-62
2024/01/23 03:44:59;;;;;;;21.23;4.17;;;;;;;;;;5033871;28;20414;-63
2024/01/23 03:47:24;;;;;;;19.37;4.10;;;;;;;;;;5015462;28;20445;-62
2024/01/23 03:49:49;;;;;;;20.37;4.20;;;;;;;;;;5015660;28;20863;-62
2024/01/23 03:52:15;;;;;;;19.00;3.40;;;;;;;;;;5026866;28;20409;-62
2024/01/23 03:54:40;;;;;;;22.00;3.97;;;;;;;;;;5043880;28;20764;-62
2024/01/23 03:57:06;;;;;;;18.17;3.57;;;;;;;;;;5025586;28;20403;-62
2024/01/23 03:59:31;;;;;;;16.60;3.70;;;;;;;;;;5024186;28;20394;-62
2024/01/23 04:01:56;;;;;;;15.00;3.20;;;;;;;;;;5024018;28;20411;-62
2024/01/23 04:04:22;;;;;;;20.07;4.10;;;;;;;;;;5022761;28;20399;-62
2024/01/23 04:06:47;;;;;;;22.48;4.28;;;;;;;;;;5042922;28;20962;-62
2024/01/23 04:09:12;;;;;;;18.07;3.63;;;;;;;;;;5036499;28;20436;-62
2024/01/23 04:11:38;;;;;;;13.83;3.30;;;;;;;;;;5034102;28;21003;-62
2024/01/23 04:14:03;;;;;;;21.93;4.37;;;;;;;;;;5025284;28;20403;-62
2024/01/23 04:16:28;;;;;;;19.33;3.43;;;;;;;;;;5022032;28;20399;-62
2024/01/23 04:18:54;;;;;;;17.83;3.60;;;;;;;;;;5041899;28;20397;-62
2024/01/23 04:21:20;;;;;;;18.97;3.90;;;;;;;;;;5042830;28;20793;-63
2024/01/23 04:23:45;;;;;;;18.80;3.55;;;;;;;;;;5042761;28;20406;-62
2024/01/23 04:26:11;;;;;;;23.30;3.67;;;;;;;;;;5042039;28;20394;-62
2024/01/23 04:28:36;;;;;;;20.90;3.70;;;;;;;;;;5042729;28;20893;-62
2024/01/23 04:31:01;;;;;;;16.43;3.20;;;;;;;;;;5039156;28;21112;-63
2024/01/23 04:33:27;;;;;;;21.73;3.60;;;;;;;;;;5034166;28;20396;-62
2024/01/23 04:35:52;;;;;;;17.23;3.47;;;;;;;;;;5017460;28;20804;-62
2024/01/23 04:38:17;;;;;;;17.57;3.30;;;;;;;;;;5037235;28;20397;-62
2024/01/23 04:40:42;;;;;;;20.27;3.90;;;;;;;;;;5041879;28;20400;-62
2024/01/23 04:43:08;;;;;;;20.95;3.97;;;;;;;;;;5041913;28;20405;-63
2024/01/23 04:45:33;;;;;;;20.83;4.00;;;;;;;;;;5027879;28;20398;-63
2024/01/23 04:47:58;;;;;;;20.00;3.57;;;;;;;;;;5022235;28;20403;-62
2024/01/23 04:50:23;;;;;;;20.50;3.60;;;;;;;;;;5022399;28;20398;-62
2024/01/23 04:52:51;;;;;;;19.77;3.70;;;;;;;;;;5022137;28;20403;-62
2024/01/23 04:55:16;;;;;;;17.48;3.45;;;;;;;;;;5031283;28;20397;-63
2024/01/23 04:57:42;;;;;;;17.03;3.40;;;;;;;;;;5015308;28;20396;-62
2024/01/23 05:00:07;;;;;;;19.87;3.57;;;;;;;;;;5014530;28;20407;-63
2024/01/23 05:02:32;;;;;;;16.05;3.53;;;;;;;;;;5023061;28;20506;-62
2024/01/23 05:04:58;;;;;;;16.00;3.20;;;;;;;;;;5028073;28;20951;-62
2024/01/23 05:07:23;;;;;;;20.73;4.10;;;;;;;;;;5049923;28;20393;-62
2024/01/23 05:09:48;;;;;;;19.50;3.67;;;;;;;;;;5052254;28;20441;-62
2024/01/23 05:12:14;;;;;;;18.13;3.47;;;;;;;;;;5051839;28;20398;-62
2024/01/23 05:14:39;;;;;;;20.73;3.63;;;;;;;;;;5031680;28;20472;-62
2024/01/23 05:17:04;;;;;;;19.00;3.90;;;;;;;;;;5022237;28;20882;-62
2024/01/23 05:19:29;;;;;;;18.27;3.37;;;;;;;;;;5022354;28;20402;-62
2024/01/23 05:21:55;;;;;;;17.23;3.60;;;;;;;;;;5021481;28;20882;-62
2024/01/23 05:24:20;;;;;;;21.47;3.80;;;;;;;;;;5021172;28;20399;-62
2024/01/23 05:26:46;;;;;;;18.73;3.63;;;;;;;;;;5020096;28;20433;-62
2024/01/23 05:29:11;;;;;;;22.90;4.10;;;;;;;;;;4995311;28;20430;-62
2024/01/23 05:31:36;;;;;;;17.83;3.57;;;;;;;;;;5014432;28;20486;-62
2024/01/23 05:34:01;;;;;;;18.03;3.97;;;;;;;;;;5015474;28;20402;-62
2024/01/23 05:36:27;;;;;;;19.07;4.17;;;;;;;;;;5021593;28;20456;-62
2024/01/23 05:38:52;;;;;;;18.57;3.73;;;;;;;;;;5021727;28;20426;-63
2024/01/23 05:41:17;;;;;;;21.50;4.33;;;;;;;;;;5021618;28;20410;-62
2024/01/23 05:43:43;;;;;;;19.20;3.67;;;;;;;;;;5040293;28;20397;-62
2024/01/23 05:46:08;;;;;;;14.17;3.40;;;;;;;;;;5022826;28;20457;-63
2024/01/23 05:48:33;;;;;;;18.63;3.70;;;;;;;;;;5021654;28;20422;-63
2024/01/23 05:50:59;;;;;;;15.25;3.35;;;;;;;;;;5013790;28;21177;-63
2024/01/23 05:53:24;;;;;;;16.90;3.63;;;;;;;;;;5013035;28;20414;-62
2024/01/23 05:55:50;;;;;;;19.40;3.90;;;;;;;;;;5014963;28;20492;-62
2024/01/23 05:58:15;;;;;;;20.60;3.83;;;;;;;;;;5020053;28;20490;-62
2024/01/23 06:00:40;;;;;;;19.40;4.03;;;;;;;;;;5021726;28;20476;-63
2024/01/23 06:03:06;;;;;;;16.03;3.00;;;;;;;;;;5021257;28;20406;-62
2024/01/23 06:05:31;;;;;;;17.10;3.57;;;;;;;;;;5020324;28;20403;-62
2024/01/23 06:07:56;;;;;;;18.63;4.03;;;;;;;;;;5021768;28;20413;-62
2024/01/23 06:10:22;;;;;;;23.07;6.00;;;;;;;;;;5020115;28;20790;-62
2024/01/23 06:12:47;;;;;;;17.27;4.33;;;;;;;;;;5036119;28;20412;-62
2024/01/23 06:15:14;;;;;;;18.57;4.10;;;;;;;;;;5013693;28;20411;-63
2024/01/23 06:17:39;;;;;;;18.17;4.15;;;;;;;;;;5032359;28;21318;-62
2024/01/23 06:20:05;;;;;;;19.83;3.50;;;;;;;;;;5036879;28;20412;-62
2024/01/23 06:22:31;;;;;;;18.60;3.73;;;;;;;;;;5040828;28;20404;-62
2024/01/23 06:25:00;;;;;;;17.88;3.70;;;;;;;;;;5039975;28;20414;-62
2024/01/23 06:27:25;;;;;;;21.48;8.00;;;;;;;;;;5039795;28;20386;-62
2024/01/23 06:29:50;;;;;;;19.47;4.50;;;;;;;;;;5040252;28;20738;-62
2024/01/23 06:32:15;;;;;;;19.73;4.33;;;;;;;;;;5039774;28;20401;-62
2024/01/23 06:34:41;;;;;;;18.80;4.93;;;;;;;;;;5037829;28;20432;-62
2024/01/23 06:37:06;;;;;;;23.57;8.87;;;;;;;;;;4995459;28;20521;-62
2024/01/23 06:39:31;;;;;;;24.58;11.27;;;;;;;;;;5012169;28;20399;-62
2024/01/23 06:41:56;;;;;;;23.50;8.67;;;;;;;;;;5015445;28;20399;-62
2024/01/23 06:44:22;;;;;;;19.03;6.53;;;;;;;;;;5020364;28;20930;-63
2024/01/23 06:46:47;;;;;;;21.43;5.37;;;;;;;;;;5020537;28;20406;-62
2024/01/23 06:49:12;;;;;;;18.43;4.90;;;;;;;;;;5039743;28;20750;-62
2024/01/23 06:51:38;;;;;;;18.98;4.47;;;;;;;;;;5040489;28;20413;-62
2024/01/23 06:54:07;;;;;;;18.70;4.60;;;;;;;;;;5039087;28;20904;-62
2024/01/23 06:56:33;;;;;;;19.65;4.38;;;;;;;;;;5034434;28;20988;-62
2024/01/23 06:58:58;;;;;;;22.92;4.45;;;;;;;;;;5013481;28;20403;-63
2024/01/23 07:01:23;;;;;;;21.87;4.83;;;;;;;;;;5011449;28;20395;-62
2024/01/23 07:03:49;;;;;;;19.03;3.97;;;;;;;;;;5028100;28;20403;-62
2024/01/23 07:06:14;;;;;;;23.17;4.78;;;;;;;;;;5019429;28;20418;-62
2024/01/23 07:08:40;;;;;;;21.60;5.00;;;;;;;;;;5023219;28;20413;-62
2024/01/23 07:11:05;;;;;;;20.17;4.87;;;;;;;;;;5024469;28;20417;-62
2024/01/23 07:13:30;;;;;;;20.80;5.03;;;;;;;;;;5024561;28;20407;-62
2024/01/23 07:15:55;;;;;;;20.23;3.95;;;;;;;;;;5024073;28;20415;-62
2024/01/23 07:18:21;;;;;;;20.47;5.37;;;;;;;;;;5024183;28;20383;-62
2024/01/23 07:20:46;;;;;;;24.53;4.77;;;;;;;;;;5018213;28;20419;-62
2024/01/23 07:23:12;;;;;;;21.40;6.70;;;;;;;;;;5015646;28;20406;-63
2024/01/23 07:25:37;;;;;;;19.77;6.07;;;;;;;;;;5051123;28;20396;-63
2024/01/23 07:28:03;;;;;;;18.07;4.80;;;;;;;;;;5035239;28;20421;-61
2024/01/23 07:30:29;;;;;;;20.48;4.30;;;;;;;;;;5024623;28;20747;-62
2024/01/23 07:32:54;;;;;;;20.38;4.78;;;;;;;;;;5024346;28;20431;-62
2024/01/23 07:35:20;;;;;;;21.10;4.37;;;;;;;;;;5023348;28;20751;-62
2024/01/23 07:37:45;;;;;;;25.77;5.20;;;;;;;;;;5024399;28;20403;-62
2024/01/23 07:40:10;;;;;;;22.90;4.87;;;;;;;;;;5023621;28;20536;-62
2024/01/23 07:42:36;;;;;;;22.00;6.57;;;;;;;;;;5020648;28;20391;-63
2024/01/23 07:45:01;;;;;;;25.47;5.50;;;;;;;;;;5015738;28;20414;-62
2024/01/23 07:47:26;;;;;;;20.63;5.80;;;;;;;;;;5050783;28;20718;-62
2024/01/23 07:49:52;;;;;;;21.93;5.77;;;;;;;;;;5038218;28;20433;-62
2024/01/23 07:52:19;;;;;;;19.20;5.85;;;;;;;;;;5030958;28;20551;-62
2024/01/23 07:54:44;;;;;;;20.98;4.78;;;;;;;;;;5023863;28;20488;-62
2024/01/23 07:57:10;;;;;;;19.30;5.03;;;;;;;;;;5023043;28;21433;-62
2024/01/23 07:59:35;;;;;;;19.80;4.93;;;;;;;;;;5023926;28;20391;-62
2024/01/23 08:02:00;;;;;;;20.93;4.43;;;;;;;;;;5042008;28;20404;-63
2024/01/23 08:04:26;;;;;;;19.50;4.07;;;;;;;;;;5052045;28;20425;-62
2024/01/23 08:06:52;;;;;;;17.57;3.83;;;;;;;;;;5052698;28;20492;-62
2024/01/23 08:09:19;;;;;;;20.08;4.20;;;;;;;;;;5052707;28;20481;-62
2024/01/23 08:11:45;;;;;;;17.63;4.10;;;;;;;;;;5049609;28;20922;-62
2024/01/23 08:14:10;;;;;;;21.05;4.80;;;;;;;;;;5052425;28;20390;-63
2024/01/23 08:16:36;;;;;;;22.80;4.73;;;;;;;;;;5053027;28;20942;-62
2024/01/23 08:19:02;;;;;;;20.00;4.30;;;;;;;;;;5050344;28;20496;-64
2024/01/23 08:21:28;;;;;;;19.15;4.47;;;;;;;;;;5052731;28;20389;-62
2024/01/23 08:23:53;;;;;;;21.17;4.85;;;;;;;;;;5051906;28;20459;-62
2024/01/23 08:26:18;;;;;;;24.77;5.83;;;;;;;;;;5052425;28;20433;-62
2024/01/23 08:28:44;;;;;;;22.17;7.10;;;;;;;;;;5049614;28;20394;-61
2024/01/23 08:31:09;;;;;;;22.17;5.10;;;;;;;;;;5055914;28;20401;-62
2024/01/23 08:33:34;;;;;;;20.70;5.07;;;;;;;;;;5058453;28;20449;-62
2024/01/23 08:36:01;;;;;;;22.77;4.20;;;;;;;;;;5062024;28;20445;-62
2024/01/23 08:38:26;;;;;;;20.90;4.43;;;;;;;;;;5062155;28;20431;-62
2024/01/23 08:40:52;;;;;;;20.90;4.13;;;;;;;;;;5070146;28;20406;-62
2024/01/23 08:43:18;;;;;;;19.27;4.00;;;;;;;;;;5069670;28;20432;-63
2024/01/23 08:45:43;;;;;;;22.42;4.75;;;;;;;;;;5051448;28;20421;-62
2024/01/23 08:48:08;;;;;;;19.93;4.90;;;;;;;;;;5052334;28;20751;-64
2024/01/23 08:50:34;;;;;;;21.30;4.10;;;;;;;;;;5053006;28;20405;-63
2024/01/23 08:52:59;;;;;;;19.73;4.77;;;;;;;;;;5051803;28;20434;-63
2024/01/23 08:55:24;;;;;;;21.47;4.10;;;;;;;;;;5034509;28;20895;-63
2024/01/23 08:57:50;;;;;;;19.83;4.37;;;;;;;;;;5052295;28;20435;-63
2024/01/23 09:00:16;;;;;;;20.80;4.20;;;;;;;;;;5051086;28;20394;-64
2024/01/23 09:02:41;;;;;;;23.52;4.70;;;;;;;;;;5052049;28;20398;-63
2024/01/23 09:05:07;;;;;;;22.30;4.43;;;;;;;;;;5052146;28;20473;-63
2024/01/23 09:07:32;;;;;;;21.50;4.53;;;;;;;;;;5051528;28;20765;-63
2024/01/23 09:09:58;;;;;;;18.87;4.33;;;;;;;;;;5052467;28;20432;-63
2024/01/23 09:12:25;;;;;;;21.50;4.63;;;;;;;;;;5051747;28;20516;-63
2024/01/23 09:14:50;;;;;;;21.25;4.35;;;;;;;;;;5051221;28;20440;-63
2024/01/23 09:17:15;;;;;;;18.20;4.57;;;;;;;;;;5051708;28;20924;-63
2024/01/23 09:19:41;;;;;;;23.48;4.50;;;;;;;;;;5052341;28;20412;-63
2024/01/23 09:22:06;;;;;;;21.70;4.63;;;;;;;;;;5050738;28;20397;-64
2024/01/23 09:24:31;;;;;;;20.57;4.73;;;;;;;;;;5052005;28;20458;-63
2024/01/23 09:27:01;;;;;;;19.87;4.27;;;;;;;;;;5052229;28;20394;-63
2024/01/23 09:29:26;;;;;;;19.03;4.30;;;;;;;;;;5050768;28;20389;-63
2024/01/23 09:31:52;;;;;;;20.17;3.97;;;;;;;;;;5033338;28;20532;-63
2024/01/23 09:34:17;;;;;;;18.73;4.30;;;;;;;;;;5050808;28;20401;-63
2024/01/23 09:36:42;;;;;;;21.40;4.38;;;;;;;;;;5051959;28;20463;-63
2024/01/23 09:39:11;;;;;;;20.70;4.50;;;;;;;;;;5051275;28;20402;-64
2024/01/23 09:41:38;;;;;;;19.00;4.13;;;;;;;;;;5033347;28;20717;-63
2024/01/23 09:44:04;;;;;;;21.58;4.53;;;;;;;;;;5051292;28;20454;-63
2024/01/23 09:46:29;;;;;;;19.20;4.20;;;;;;;;;;5033555;28;20394;-63
2024/01/23 09:48:55;;;;;;;19.70;4.33;;;;;;;;;;5033181;28;20901;-63
2024/01/23 09:51:20;;;;;;;18.70;3.83;;;;;;;;;;5051151;28;20463;-63
2024/01/23 09:53:45;;;;;;;22.83;4.30;;;;;;;;;;5033697;28;20401;-63
2024/01/23 09:56:11;;;;;;;20.60;4.17;;;;;;;;;;5050380;28;20436;-63
2024/01/23 09:58:36;;;;;;;17.65;4.28;;;;;;;;;;5051656;28;20394;-63
2024/01/23 10:01:02;;;;;;;21.23;4.00;;;;;;;;;;5050444;28;20405;-64
2024/01/23 10:03:28;;;;;;;22.13;9.15;;;;;;;;;;5050686;28;20419;-63
2024/01/23 10:05:53;;;;;;;22.37;4.90;;;;;;;;;;5051441;28;20936;-63
2024/01/23 10:08:21;;;;;;;22.23;4.83;;;;;;;;;;5033059;28;20736;-63
2024/01/23 10:10:46;;;;;;;21.52;4.60;;;;;;;;;;5050701;28;20898;-63
2024/01/23 10:13:12;;;;;;;16.93;3.93;;;;;;;;;;5032728;28;20413;-62
2024/01/23 10:15:38;;;;;;;19.02;4.30;;;;;;;;;;5050943;28;20396;-63
2024/01/23 10:18:04;;;;;;;22.13;4.60;;;;;;;;;;5031936;28;20398;-64
2024/01/23 10:20:30;;;;;;;19.27;4.13;;;;;;;;;;5051050;28;20404;-63
2024/01/23 10:22:56;;;;;;;18.55;3.85;;;;;;;;;;5050821;28;20488;-64
2024/01/23 10:25:22;;;;;;;20.10;4.20;;;;;;;;;;5049689;28;20409;-64
2024/01/23 10:27:51;;;;;;;19.65;4.05;;;;;;;;;;5050933;28;20477;-63
2024/01/23 10:30:16;;;;;;;18.63;4.05;;;;;;;;;;5050225;28;20397;-63
2024/01/23 10:32:42;;;;;;;20.17;4.30;;;;;;;;;;5049863;28;20411;-63
2024/01/23 10:35:10;;;;;;;21.15;5.07;;;;;;;;;;5050385;28;20494;-63
2024/01/23 10:37:36;;;;;;;20.67;4.60;;;;;;;;;;5050172;28;20476;-63
2024/01/23 10:40:01;;;;;;;19.17;3.93;;;;;;;;;;5050352;28;20480;-64
2024/01/23 10:42:26;;;;;;;18.63;3.97;;;;;;;;;;5050136;28;20446;-63
2024/01/23 10:44:52;;;;;;;19.83;4.10;;;;;;;;;;5049584;28;20499;-63
2024/01/23 10:47:18;;;;;;;17.43;3.90;;;;;;;;;;5032370;28;20497;-63
2024/01/23 10:49:43;;;;;;;17.98;4.45;;;;;;;;;;5050547;28;20531;-63
2024/01/23 10:52:10;;;;;;;19.37;4.47;;;;;;;;;;5049547;28;20500;-64
2024/01/23 10:54:36;;;;;;;18.80;4.00;;;;;;;;;;5050771;28;20397;-63
2024/01/23 10:57:04;;;;;;;21.05;4.25;;;;;;;;;;5050143;28;20405;-63
2024/01/23 10:59:29;;;;;;;19.55;4.50;;;;;;;;;;5032380;28;21002;-63
2024/01/23 11:02:03;;;;;;;20.67;4.45;;;;;;;;;;5050225;28;20476;-63
2024/01/23 11:04:28;;;;;;;21.88;4.10;;;;;;;;;;5050130;28;20401;-63
2024/01/23 11:06:56;;;;;;;19.43;4.20;;;;;;;;;;5050081;28;20385;-63
2024/01/23 11:09:25;;;;;;;23.50;4.23;;;;;;;;;;5049859;28;20385;-64
2024/01/23 11:11:58;;;;;;;21.27;4.30;;;;;;;;;;5032933;28;20515;-64
2024/01/23 11:14:25;;;;;;;20.38;4.32;;;;;;;;;;5049226;28;20409;-64
2024/01/23 11:17:02;;;;;;;19.03;4.13;;;;;;;;;;5032423;28;20398;-63
2024/01/23 11:19:27;;;;;;;22.98;4.75;;;;;;;;;;5049930;28;20394;-63
2024/01/23 11:22:00;;;;;;;17.63;4.03;;;;;;;;;;5032092;28;20458;-63
2024/01/23 11:24:41;;;;;;;18.48;4.10;;;;;;;;;;5049836;28;20408;-63
2024/01/23 11:27:07;;;;;;;22.58;4.57;;;;;;;;;;5031416;28;20458;-63
2024/01/23 11:29:33;;;;;;;20.67;4.30;;;;;;;;;;5050242;28;20389;-63
2024/01/23 11:31:58;;;;;;;17.70;4.10;;;;;;;;;;5050221;28;20418;-63
2024/01/23 11:34:24;;;;;;;18.67;4.47;;;;;;;;;;5049142;28;20857;-63
2024/01/23 11:36:49;;;;;;;23.60;4.43;;;;;;;;;;5050527;28;20401;-63
2024/01/23 11:39:14;;;;;;;17.53;4.20;;;;;;;;;;5049616;28;20444;-64
2024/01/23 11:41:46;;;;;;;20.38;4.22;;;;;;;;;;5049565;28;20393;-63
2024/01/23 11:44:11;;;;;;;21.23;4.78;;;;;;;;;;5030516;28;20933;-64
2024/01/23 11:46:36;;;;;;;19.33;4.00;;;;;;;;;;5050185;28;20429;-63
2024/01/23 11:49:01;;;;;;;18.77;4.30;;;;;;;;;;5035306;28;20407;-64
2024/01/23 11:51:27;;;;;;;18.33;4.23;;;;;;;;;;5058800;28;20409;-63
2024/01/23 11:53:55;;;;;;;18.65;4.00;;;;;;;;;;5068768;28;20486;-63
2024/01/23 11:56:20;;;;;;;19.20;4.40;;;;;;;;;;5056439;28;20397;-63
2024/01/23 11:58:46;;;;;;;20.57;4.83;;;;;;;;;;5068417;28;20793;-63
2024/01/23 12:01:12;;;;;;;20.10;4.22;;;;;;;;;;5035099;28;20458;-63
2024/01/23 12:03:44;;;;;;;18.33;4.57;;;;;;;;;;5052539;28;20966;-63
2024/01/23 12:06:09;;;;;;;21.25;4.05;;;;;;;;;;5053181;28;20840;-63
2024/01/23 12:08:35;;;;;;;21.17;4.53;;;;;;;;;;5053528;28;20413;-63
2024/01/23 12:11:00;;;;;;;18.50;4.43;;;;;;;;;;5034133;28;20451;-64
2024/01/23 12:13:25;;;;;;;22.20;4.40;;;;;;;;;;5018888;28;20482;-63
2024/01/23 12:15:51;;;;;;;20.43;4.30;;;;;;;;;;5053238;28;20407;-63
2024/01/23 12:18:19;;;;;;;18.47;3.97;;;;;;;;;;5051951;28;21216;-63
2024/01/23 12:20:48;;;;;;;19.13;4.20;;;;;;;;;;5053107;28;20818;-63
2024/01/23 12:23:13;;;;;;;18.48;4.43;;;;;;;;;;5051945;28;20478;-62
2024/01/23 12:25:39;;;;;;;21.05;4.45;;;;;;;;;;5035364;28;20842;-63
2024/01/23 12:28:04;;;;;;;20.00;4.27;;;;;;;;;;5052671;28;20398;-64
2024/01/23 12:30:29;;;;;;;19.73;4.43;;;;;;;;;;5052095;28;20428;-63
2024/01/23 12:32:56;;;;;;;19.83;4.27;;;;;;;;;;5053061;28;20489;-63
2024/01/23 12:35:22;;;;;;;23.83;4.60;;;;;;;;;;5051971;28;20393;-64
2024/01/23 12:37:47;;;;;;;23.53;4.40;;;;;;;;;;5049179;28;20457;-63
2024/01/23 12:40:13;;;;;;;19.33;4.53;;;;;;;;;;5034464;28;20906;-63
2024/01/23 12:42:39;;;;;;;19.25;4.95;;;;;;;;;;5052862;28;20405;-63
2024/01/23 12:45:07;;;;;;;20.27;4.50;;;;;;;;;;5033516;28;20738;-63
2024/01/23 12:47:33;;;;;;;22.83;5.22;;;;;;;;;;5053006;28;20401;-63
2024/01/23 12:49:58;;;;;;;23.87;4.37;;;;;;;;;;5052482;28;20394;-63
2024/01/23 12:52:24;;;;;;;19.97;4.40;;;;;;;;;;5051520;28;20950;-63
2024/01/23 12:54:49;;;;;;;18.80;4.57;;;;;;;;;;5052725;28;20401;-63
2024/01/23 12:57:14;;;;;;;19.00;4.30;;;;;;;;;;5052048;28;20430;-63
2024/01/23 12:59:40;;;;;;;18.23;4.13;;;;;;;;;;5051671;28;20397;-63
2024/01/23 13:02:06;;;;;;;16.83;3.90;;;;;;;;;;5051882;28;20769;-64
2024/01/23 13:04:31;;;;;;;19.17;4.40;;;;;;;;;;5052242;28;20472;-63
2024/01/23 13:06:56;;;;;;;17.07;3.63;;;;;;;;;;5051154;28;20402;-63
2024/01/23 13:09:22;;;;;;;17.45;4.00;;;;;;;;;;5051825;28;20475;-63
2024/01/23 13:11:47;;;;;;;19.67;3.83;;;;;;;;;;5052169;28;20425;-63
2024/01/23 13:14:13;;;;;;;19.20;4.27;;;;;;;;;;5050800;28;20416;-63
2024/01/23 13:16:39;;;;;;;22.08;4.20;;;;;;;;;;5052231;28;20485;-63
2024/01/23 13:19:04;;;;;;;19.05;4.05;;;;;;;;;;5050735;28;20488;-64
2024/01/23 13:21:31;;;;;;;22.73;4.00;;;;;;;;;;5051347;28;20477;-63
2024/01/23 13:23:56;;;;;;;18.60;3.50;;;;;;;;;;5051936;28;20409;-63
2024/01/23 13:26:22;;;;;;;17.60;3.97;;;;;;;;;;5050904;28;20382;-63
2024/01/23 13:28:47;;;;;;;20.33;3.80;;;;;;;;;;5052061;28;20405;-63
2024/01/23 13:31:12;;;;;;;19.13;4.23;;;;;;;;;;5051677;28;20397;-63
2024/01/23 13:33:38;;;;;;;18.63;3.80;;;;;;;;;;5051327;28;21143;-63
2024/01/23 13:36:04;;;;;;;17.20;3.75;;;;;;;;;;5051358;28;20836;-64
2024/01/23 13:38:29;;;;;;;18.83;3.90;;;;;;;;;;5051790;28;20496;-63
2024/01/23 13:40:54;;;;;;;18.53;4.07;;;;;;;;;;5051288;28;20770;-63
2024/01/23 13:43:20;;;;;;;19.30;4.43;;;;;;;;;;5051566;28;20389;-63
2024/01/23 13:45:45;;;;;;;19.08;3.92;;;;;;;;;;5051628;28;20899;-63
2024/01/23 13:48:10;;;;;;;28.20;4.77;;;;;;;;;;5050592;28;20412;-63
2024/01/23 13:50:36;;;;;;;21.07;4.10;;;;;;;;;;5033910;28;20393;-63
2024/01/23 13:53:01;;;;;;;17.57;3.93;;;;;;;;;;5051042;28;20489;-64
2024/01/23 13:55:27;;;;;;;21.13;4.10;;;;;;;;;;5051041;28;20421;-63
2024/01/23 13:57:52;;;;;;;19.60;4.05;;;;;;;;;;5051370;28;20389;-63
2024/01/23 14:00:19;;;;;;;20.00;4.30;;;;;;;;;;5052752;28;20410;-63
2024/01/23 14:02:45;;;;;;;19.17;4.33;;;;;;;;;;5050444;28;20405;-63
2024/01/23 14:05:12;;;;;;;20.03;4.80;;;;;;;;;;5050868;28;20413;-65
2024/01/23 14:07:39;;;;;;;22.53;4.97;;;;;;;;;;5051159;28;20459;-65
2024/01/23 14:10:05;;;;;;;21.25;4.30;;;;;;;;;;5050018;28;20412;-65
2024/01/23 14:12:30;;;;;;;22.70;4.70;;;;;;;;;;5050980;28;20892;-65
2024/01/23 14:14:56;;;;;;;26.63;4.23;;;;;;;;;;5050900;28;20885;-65
2024/01/23 14:17:21;;;;;;;24.50;4.70;;;;;;;;;;5048955;28;21098;-65
2024/01/23 14:19:47;;;;;;;21.43;4.30;;;;;;;;;;5053574;28;20450;-64
2024/01/23 14:22:15;;;;;;;24.00;4.70;;;;;;;;;;5052095;28;20412;-65